Le Commodore — FPNE — position and weather

sailwx.info

Track history (hours):
 
Tides and Currents Weather Stations Pressure Air Temp Water Temp Dewpoint Dewpoint Depression Visibility Wind Speed Wind Dir Waves Ship Positions

Le Commodore

Last reported at 2017-Aug-25 14:43 UTC. Time now 2017-Sep-20 02:08 UTC.
Position N 47°47' W 004°17'.
Warning: this ship's position is 25 days out of date.

Length 15 m.

Type: Other ship. MMSI: 228893000.

Date/timePositionNaut miles runAvg speedWind from/ knotsBaromVisibWave heightAir tempDewpointWater temp
2017-Aug-25 14:43N 47°47' W 004°17'15 4.8
2017-Aug-25 11:38N 47°38' W 004°35'6 1.3
2017-Aug-25 06:43N 47°44' W 004°38'0 0.3
2017-Aug-25 05:18N 47°45' W 004°39'10 6.6
2017-Aug-25 03:50N 47°46' W 004°25'6 1.6
2017-Aug-25 00:13N 47°48' W 004°17'1 0.0
2017-Aug-24 02:53N 47°47' W 004°17'21 1.0
2017-Aug-23 06:16N 47°34' W 004°41'1 3.4
2017-Aug-23 05:49N 47°34' W 004°39'2 3.2
2017-Aug-23 05:17N 47°36' W 004°37'1 3.0
2017-Aug-23 05:00N 47°36' W 004°36'3 5.5
2017-Aug-23 04:31N 47°37' W 004°32'5 8.9
2017-Aug-23 04:00N 47°40' W 004°28'7 8.8
2017-Aug-23 03:13N 47°45' W 004°21'2 8.3
2017-Aug-23 02:58N 47°47' W 004°18'4 0.3
2017-Aug-22 14:38N 47°43' W 004°19'22 3.5
2017-Aug-22 08:22N 47°22' W 004°30'1 3.4
2017-Aug-22 08:00N 47°22' W 004°28'3 2.1
2017-Aug-22 06:47N 47°23' W 004°31'0 1.4
2017-Aug-22 06:30N 47°23' W 004°31'2 3.4
2017-Aug-22 05:51N 47°23' W 004°27'1 3.4
2017-Aug-22 05:30N 47°23' W 004°26'2 3.5
2017-Aug-22 05:00N 47°25' W 004°25'3 7.0
2017-Aug-22 04:30N 47°28' W 004°23'5 9.0
2017-Aug-22 03:58N 47°33' W 004°22'14 1.1
2017-Aug-21 14:53N 47°47' W 004°18'26 3.4
2017-Aug-21 07:10N 47°22' W 004°29'  
2017-Aug-18 14:58N 47°47' W 004°18'31 1.0
2017-Aug-17 06:43N 47°18' W 004°06'1 3.1
2017-Aug-17 06:30N 47°17' W 004°05'2 2.2
2017-Aug-17 05:34N 47°19' W 004°03'0 3.1
2017-Aug-17 05:29N 47°19' W 004°02'26 7.2
2017-Aug-17 01:53N 47°43' W 004°16'3 0.3
2017-Aug-16 14:53N 47°46' W 004°18'25 5.1
2017-Aug-16 10:00N 47°23' W 004°31'2 3.0
2017-Aug-16 09:19N 47°23' W 004°28'2 1.1
2017-Aug-16 07:29N 47°23' W 004°31'1 3.2
2017-Aug-16 07:01N 47°23' W 004°29'6 2.8
2017-Aug-16 04:48N 47°28' W 004°23'13 8.3
2017-Aug-16 03:11N 47°41' W 004°20'  
Track history (hours):
 
Tides and Currents Weather Stations Pressure Air Temp Water Temp Dewpoint Dewpoint Depression Visibility Wind Speed Wind Dir Waves Ship Positions

Le Commodore

Last reported at 2017-Aug-25 14:43 UTC. Time now 2017-Sep-20 02:08 UTC.
Position N 47°47' W 004°17'.
Warning: this ship's position is 25 days out of date.

Length 15 m.

Type: Other ship. MMSI: 228893000.

Date/timePositionNaut miles runAvg speedWind from/ knotsBaromVisibWave heightAir tempDewpointWater temp
2017-Aug-25 14:43N 47°47' W 004°17'15 4.8
2017-Aug-25 11:38N 47°38' W 004°35'6 1.3
2017-Aug-25 06:43N 47°44' W 004°38'0 0.3
2017-Aug-25 05:18N 47°45' W 004°39'10 6.6
2017-Aug-25 03:50N 47°46' W 004°25'6 1.6
2017-Aug-25 00:13N 47°48' W 004°17'1 0.0
2017-Aug-24 02:53N 47°47' W 004°17'21 1.0
2017-Aug-23 06:16N 47°34' W 004°41'1 3.4
2017-Aug-23 05:49N 47°34' W 004°39'2 3.2
2017-Aug-23 05:17N 47°36' W 004°37'1 3.0
2017-Aug-23 05:00N 47°36' W 004°36'3 5.5
2017-Aug-23 04:31N 47°37' W 004°32'5 8.9
2017-Aug-23 04:00N 47°40' W 004°28'7 8.8
2017-Aug-23 03:13N 47°45' W 004°21'2 8.3
2017-Aug-23 02:58N 47°47' W 004°18'4 0.3
2017-Aug-22 14:38N 47°43' W 004°19'22 3.5
2017-Aug-22 08:22N 47°22' W 004°30'1 3.4
2017-Aug-22 08:00N 47°22' W 004°28'3 2.1
2017-Aug-22 06:47N 47°23' W 004°31'0 1.4
2017-Aug-22 06:30N 47°23' W 004°31'2 3.4
2017-Aug-22 05:51N 47°23' W 004°27'1 3.4
2017-Aug-22 05:30N 47°23' W 004°26'2 3.5
2017-Aug-22 05:00N 47°25' W 004°25'3 7.0
2017-Aug-22 04:30N 47°28' W 004°23'5 9.0
2017-Aug-22 03:58N 47°33' W 004°22'14 1.1
2017-Aug-21 14:53N 47°47' W 004°18'26 3.4
2017-Aug-21 07:10N 47°22' W 004°29'  
2017-Aug-18 14:58N 47°47' W 004°18'31 1.0
2017-Aug-17 06:43N 47°18' W 004°06'1 3.1
2017-Aug-17 06:30N 47°17' W 004°05'2 2.2
2017-Aug-17 05:34N 47°19' W 004°03'0 3.1
2017-Aug-17 05:29N 47°19' W 004°02'26 7.2
2017-Aug-17 01:53N 47°43' W 004°16'3 0.3
2017-Aug-16 14:53N 47°46' W 004°18'25 5.1
2017-Aug-16 10:00N 47°23' W 004°31'2 3.0
2017-Aug-16 09:19N 47°23' W 004°28'2 1.1
2017-Aug-16 07:29N 47°23' W 004°31'1 3.2
2017-Aug-16 07:01N 47°23' W 004°29'6 2.8
2017-Aug-16 04:48N 47°28' W 004°23'13 8.3
2017-Aug-16 03:11N 47°41' W 004°20'  

Dump ship's entire track history